Terminal Aerodrome Forecast
Issued by NWS

Home | Current Version | Previous Version | Text Only | Print | Product List | Glossary On
Versions: 1 2 3 4 5 6 7 8 9 10 11 12 13 14 15 16 17 18 19 20 21 22 23 24 25 26 27 28 29
000
FTUS44 KHGX 201121
TAFLBX
TAF
KLBX 201121Z 2012/2112 14007KT P6SM OVC011
     FM201300 VRB05KT 6SM -SHRA VCTS SCT012 BKN025CB
      TEMPO 2014/2017 VRB35KT 1SM +TSRA SCT007 BKN012CB
     FM202000 36006KT P6SM VCSH BKN120
     FM210200 VRB02KT P6SM BKN250
     FM210700 VRB02KT 6SM BR SCT250=

USA.gov is the U.S. government's official web portal to all federal, state and local government web resources and services.